sensor_id;sensor_type;location;lat;lon;timestamp;P1;durP1;ratioP1;P2;durP2;ratioP2
37677;SDS011;23517;50.390;8.616;2022-11-25T00:01:27;3.63;;;1.60;;
37677;SDS011;23517;50.390;8.616;2022-11-25T00:03:56;7.38;;;1.98;;
37677;SDS011;23517;50.390;8.616;2022-11-25T00:06:31;9.90;;;1.67;;
37677;SDS011;23517;50.390;8.616;2022-11-25T00:11:36;3.65;;;1.20;;
37677;SDS011;23517;50.390;8.616;2022-11-25T00:14:08;6.85;;;1.85;;
37677;SDS011;23517;50.390;8.616;2022-11-25T00:16:38;7.03;;;1.95;;
37677;SDS011;23517;50.390;8.616;2022-11-25T00:19:12;5.85;;;1.65;;
37677;SDS011;23517;50.390;8.616;2022-11-25T00:21:39;7.70;;;1.85;;
37677;SDS011;23517;50.390;8.616;2022-11-25T00:24:06;3.63;;;1.60;;
37677;SDS011;23517;50.390;8.616;2022-11-25T00:26:33;4.13;;;1.58;;
37677;SDS011;23517;50.390;8.616;2022-11-25T00:29:03;7.90;;;1.63;;
37677;SDS011;23517;50.390;8.616;2022-11-25T00:31:33;7.47;;;1.73;;
37677;SDS011;23517;50.390;8.616;2022-11-25T00:34:02;5.13;;;1.60;;
37677;SDS011;23517;50.390;8.616;2022-11-25T00:36:30;4.68;;;1.38;;
37677;SDS011;23517;50.390;8.616;2022-11-25T00:39:02;4.85;;;1.50;;
37677;SDS011;23517;50.390;8.616;2022-11-25T00:41:32;3.20;;;1.52;;
37677;SDS011;23517;50.390;8.616;2022-11-25T00:44:18;5.45;;;1.30;;
37677;SDS011;23517;50.390;8.616;2022-11-25T00:49:35;9.30;;;1.90;;
37677;SDS011;23517;50.390;8.616;2022-11-25T00:52:06;3.30;;;1.50;;
37677;SDS011;23517;50.390;8.616;2022-11-25T00:54:34;7.45;;;1.75;;
37677;SDS011;23517;50.390;8.616;2022-11-25T00:57:01;3.95;;;1.40;;
37677;SDS011;23517;50.390;8.616;2022-11-25T00:59:28;5.07;;;1.80;;
37677;SDS011;23517;50.390;8.616;2022-11-25T01:01:55;12.10;;;1.90;;
37677;SDS011;23517;50.390;8.616;2022-11-25T01:04:22;10.35;;;1.70;;
37677;SDS011;23517;50.390;8.616;2022-11-25T01:06:49;7.10;;;2.78;;
37677;SDS011;23517;50.390;8.616;2022-11-25T01:09:15;7.38;;;1.58;;
37677;SDS011;23517;50.390;8.616;2022-11-25T01:11:42;6.35;;;1.80;;
37677;SDS011;23517;50.390;8.616;2022-11-25T01:14:09;8.48;;;1.63;;
37677;SDS011;23517;50.390;8.616;2022-11-25T01:16:36;7.55;;;1.60;;
37677;SDS011;23517;50.390;8.616;2022-11-25T01:19:03;3.85;;;1.50;;
37677;SDS011;23517;50.390;8.616;2022-11-25T01:21:31;7.45;;;1.85;;
37677;SDS011;23517;50.390;8.616;2022-11-25T01:23:59;4.68;;;1.95;;
37677;SDS011;23517;50.390;8.616;2022-11-25T01:26:28;4.40;;;1.52;;
37677;SDS011;23517;50.390;8.616;2022-11-25T01:29:00;12.20;;;2.03;;
37677;SDS011;23517;50.390;8.616;2022-11-25T01:31:31;6.63;;;1.67;;
37677;SDS011;23517;50.390;8.616;2022-11-25T01:34:02;6.68;;;1.83;;
37677;SDS011;23517;50.390;8.616;2022-11-25T01:36:36;6.50;;;1.45;;
37677;SDS011;23517;50.390;8.616;2022-11-25T01:39:04;3.55;;;1.50;;
37677;SDS011;23517;50.390;8.616;2022-11-25T01:41:33;3.60;;;1.40;;
37677;SDS011;23517;50.390;8.616;2022-11-25T01:44:02;4.90;;;1.50;;
37677;SDS011;23517;50.390;8.616;2022-11-25T01:46:40;7.55;;;1.88;;
37677;SDS011;23517;50.390;8.616;2022-11-25T01:49:24;6.68;;;1.45;;
37677;SDS011;23517;50.390;8.616;2022-11-25T01:54:30;11.65;;;1.67;;
37677;SDS011;23517;50.390;8.616;2022-11-25T01:57:04;8.65;;;1.50;;
37677;SDS011;23517;50.390;8.616;2022-11-25T01:59:45;6.45;;;1.52;;
37677;SDS011;23517;50.390;8.616;2022-11-25T02:02:15;12.25;;;1.67;;
37677;SDS011;23517;50.390;8.616;2022-11-25T02:04:43;9.40;;;1.65;;
37677;SDS011;23517;50.390;8.616;2022-11-25T02:07:13;10.00;;;1.90;;
37677;SDS011;23517;50.390;8.616;2022-11-25T02:09:45;3.63;;;1.23;;
37677;SDS011;23517;50.390;8.616;2022-11-25T02:12:13;5.10;;;1.42;;
37677;SDS011;23517;50.390;8.616;2022-11-25T02:14:43;4.82;;;1.40;;
37677;SDS011;23517;50.390;8.616;2022-11-25T02:17:11;8.88;;;1.60;;
37677;SDS011;23517;50.390;8.616;2022-11-25T02:19:46;6.20;;;1.48;;
37677;SDS011;23517;50.390;8.616;2022-11-25T02:25:13;4.80;;;1.50;;
37677;SDS011;23517;50.390;8.616;2022-11-25T02:27:54;6.63;;;1.70;;
37677;SDS011;23517;50.390;8.616;2022-11-25T02:30:38;4.80;;;1.40;;
37677;SDS011;23517;50.390;8.616;2022-11-25T02:33:04;8.73;;;2.10;;
37677;SDS011;23517;50.390;8.616;2022-11-25T02:35:36;6.72;;;2.10;;
37677;SDS011;23517;50.390;8.616;2022-11-25T02:38:09;6.22;;;1.60;;
37677;SDS011;23517;50.390;8.616;2022-11-25T02:40:42;3.70;;;1.33;;
37677;SDS011;23517;50.390;8.616;2022-11-25T02:43:23;5.35;;;1.63;;
37677;SDS011;23517;50.390;8.616;2022-11-25T02:48:35;13.95;;;3.45;;
37677;SDS011;23517;50.390;8.616;2022-11-25T02:51:25;4.40;;;1.60;;
37677;SDS011;23517;50.390;8.616;2022-11-25T02:53:54;6.72;;;1.75;;
37677;SDS011;23517;50.390;8.616;2022-11-25T02:56:26;6.50;;;1.58;;
37677;SDS011;23517;50.390;8.616;2022-11-25T02:58:56;7.68;;;1.52;;
37677;SDS011;23517;50.390;8.616;2022-11-25T03:01:24;8.68;;;1.85;;
37677;SDS011;23517;50.390;8.616;2022-11-25T03:03:51;6.75;;;1.60;;
37677;SDS011;23517;50.390;8.616;2022-11-25T03:06:17;8.38;;;2.00;;
37677;SDS011;23517;50.390;8.616;2022-11-25T03:08:44;4.10;;;1.50;;
37677;SDS011;23517;50.390;8.616;2022-11-25T03:11:11;6.03;;;1.58;;
37677;SDS011;23517;50.390;8.616;2022-11-25T03:13:38;9.35;;;1.77;;
37677;SDS011;23517;50.390;8.616;2022-11-25T03:16:04;6.20;;;1.67;;
37677;SDS011;23517;50.390;8.616;2022-11-25T03:18:32;9.90;;;2.15;;
37677;SDS011;23517;50.390;8.616;2022-11-25T03:20:59;7.03;;;1.63;;
37677;SDS011;23517;50.390;8.616;2022-11-25T03:23:26;8.82;;;1.42;;
37677;SDS011;23517;50.390;8.616;2022-11-25T03:25:53;13.05;;;1.58;;
37677;SDS011;23517;50.390;8.616;2022-11-25T03:28:20;9.60;;;1.50;;
37677;SDS011;23517;50.390;8.616;2022-11-25T03:30:47;9.40;;;2.00;;
37677;SDS011;23517;50.390;8.616;2022-11-25T03:33:13;8.60;;;2.20;;
37677;SDS011;23517;50.390;8.616;2022-11-25T03:35:40;3.63;;;1.30;;
37677;SDS011;23517;50.390;8.616;2022-11-25T03:38:06;6.38;;;2.08;;
37677;SDS011;23517;50.390;8.616;2022-11-25T03:40:33;11.68;;;1.95;;
37677;SDS011;23517;50.390;8.616;2022-11-25T03:43:00;6.85;;;1.67;;
37677;SDS011;23517;50.390;8.616;2022-11-25T03:45:27;6.75;;;1.42;;
37677;SDS011;23517;50.390;8.616;2022-11-25T03:47:53;3.47;;;1.45;;
37677;SDS011;23517;50.390;8.616;2022-11-25T03:50:20;8.55;;;1.73;;
37677;SDS011;23517;50.390;8.616;2022-11-25T03:52:47;10.48;;;1.52;;
37677;SDS011;23517;50.390;8.616;2022-11-25T03:55:13;9.35;;;1.60;;
37677;SDS011;23517;50.390;8.616;2022-11-25T03:57:40;10.93;;;2.10;;
37677;SDS011;23517;50.390;8.616;2022-11-25T04:00:07;5.47;;;1.40;;
37677;SDS011;23517;50.390;8.616;2022-11-25T04:02:34;6.15;;;1.45;;
37677;SDS011;23517;50.390;8.616;2022-11-25T04:05:01;4.40;;;1.65;;
37677;SDS011;23517;50.390;8.616;2022-11-25T04:07:30;6.82;;;1.48;;
37677;SDS011;23517;50.390;8.616;2022-11-25T04:09:57;5.63;;;1.70;;
37677;SDS011;23517;50.390;8.616;2022-11-25T04:12:23;7.38;;;1.75;;
37677;SDS011;23517;50.390;8.616;2022-11-25T04:15:08;7.47;;;1.98;;
37677;SDS011;23517;50.390;8.616;2022-11-25T04:17:35;9.80;;;3.13;;
37677;SDS011;23517;50.390;8.616;2022-11-25T04:20:02;10.90;;;4.47;;
37677;SDS011;23517;50.390;8.616;2022-11-25T04:22:30;12.90;;;6.53;;
37677;SDS011;23517;50.390;8.616;2022-11-25T04:24:56;18.55;;;8.18;;
37677;SDS011;23517;50.390;8.616;2022-11-25T04:27:23;22.30;;;6.72;;
37677;SDS011;23517;50.390;8.616;2022-11-25T04:29:49;19.35;;;6.93;;
37677;SDS011;23517;50.390;8.616;2022-11-25T04:32:16;12.02;;;5.45;;
37677;SDS011;23517;50.390;8.616;2022-11-25T04:34:43;12.85;;;4.25;;
37677;SDS011;23517;50.390;8.616;2022-11-25T04:37:09;11.55;;;4.53;;
37677;SDS011;23517;50.390;8.616;2022-11-25T04:39:36;12.82;;;5.15;;
37677;SDS011;23517;50.390;8.616;2022-11-25T04:42:03;14.15;;;6.53;;
37677;SDS011;23517;50.390;8.616;2022-11-25T04:44:48;14.82;;;5.25;;
37677;SDS011;23517;50.390;8.616;2022-11-25T04:47:35;13.77;;;4.75;;
37677;SDS011;23517;50.390;8.616;2022-11-25T04:50:03;12.95;;;4.85;;
37677;SDS011;23517;50.390;8.616;2022-11-25T04:52:32;14.05;;;5.35;;
37677;SDS011;23517;50.390;8.616;2022-11-25T04:54:58;10.75;;;4.35;;
37677;SDS011;23517;50.390;8.616;2022-11-25T04:57:25;11.95;;;4.75;;
37677;SDS011;23517;50.390;8.616;2022-11-25T04:59:52;12.13;;;5.07;;
37677;SDS011;23517;50.390;8.616;2022-11-25T05:02:23;19.42;;;6.20;;
37677;SDS011;23517;50.390;8.616;2022-11-25T05:04:52;12.73;;;5.72;;
37677;SDS011;23517;50.390;8.616;2022-11-25T05:07:22;15.20;;;7.10;;
37677;SDS011;23517;50.390;8.616;2022-11-25T05:09:51;14.23;;;5.80;;
37677;SDS011;23517;50.390;8.616;2022-11-25T05:12:19;20.88;;;6.85;;
37677;SDS011;23517;50.390;8.616;2022-11-25T05:14:49;18.15;;;6.65;;
37677;SDS011;23517;50.390;8.616;2022-11-25T05:17:17;31.42;;;12.20;;
37677;SDS011;23517;50.390;8.616;2022-11-25T05:19:47;29.02;;;12.45;;
37677;SDS011;23517;50.390;8.616;2022-11-25T05:22:15;30.70;;;12.90;;
37677;SDS011;23517;50.390;8.616;2022-11-25T05:24:45;36.75;;;18.13;;
37677;SDS011;23517;50.390;8.616;2022-11-25T05:27:12;51.22;;;24.23;;
37677;SDS011;23517;50.390;8.616;2022-11-25T05:29:40;35.00;;;18.27;;
37677;SDS011;23517;50.390;8.616;2022-11-25T05:32:07;24.48;;;11.40;;
37677;SDS011;23517;50.390;8.616;2022-11-25T05:34:34;13.55;;;6.38;;
37677;SDS011;23517;50.390;8.616;2022-11-25T05:37:02;15.88;;;6.47;;
37677;SDS011;23517;50.390;8.616;2022-11-25T05:39:29;17.20;;;6.72;;
37677;SDS011;23517;50.390;8.616;2022-11-25T05:41:56;17.17;;;7.28;;
37677;SDS011;23517;50.390;8.616;2022-11-25T05:44:23;17.42;;;6.55;;
37677;SDS011;23517;50.390;8.616;2022-11-25T05:46:50;19.13;;;7.75;;
37677;SDS011;23517;50.390;8.616;2022-11-25T05:49:19;20.70;;;7.25;;
37677;SDS011;23517;50.390;8.616;2022-11-25T05:51:46;18.55;;;8.40;;
37677;SDS011;23517;50.390;8.616;2022-11-25T05:54:13;14.30;;;7.30;;
37677;SDS011;23517;50.390;8.616;2022-11-25T05:56:42;24.33;;;8.45;;
37677;SDS011;23517;50.390;8.616;2022-11-25T05:59:09;23.88;;;9.27;;
37677;SDS011;23517;50.390;8.616;2022-11-25T06:01:35;14.68;;;8.25;;
37677;SDS011;23517;50.390;8.616;2022-11-25T06:04:02;19.27;;;9.13;;
37677;SDS011;23517;50.390;8.616;2022-11-25T06:06:30;18.10;;;8.90;;
37677;SDS011;23517;50.390;8.616;2022-11-25T06:08:57;20.92;;;11.85;;
37677;SDS011;23517;50.390;8.616;2022-11-25T06:11:24;25.15;;;10.40;;
37677;SDS011;23517;50.390;8.616;2022-11-25T06:13:51;21.83;;;11.05;;
37677;SDS011;23517;50.390;8.616;2022-11-25T06:16:19;27.88;;;14.15;;
37677;SDS011;23517;50.390;8.616;2022-11-25T06:18:48;57.13;;;25.65;;
37677;SDS011;23517;50.390;8.616;2022-11-25T06:21:15;44.92;;;20.73;;
37677;SDS011;23517;50.390;8.616;2022-11-25T06:23:42;32.85;;;15.85;;
37677;SDS011;23517;50.390;8.616;2022-11-25T06:26:15;26.95;;;13.75;;
37677;SDS011;23517;50.390;8.616;2022-11-25T06:28:44;37.55;;;17.58;;
37677;SDS011;23517;50.390;8.616;2022-11-25T06:31:13;27.00;;;14.07;;
37677;SDS011;23517;50.390;8.616;2022-11-25T06:33:51;26.38;;;11.60;;
37677;SDS011;23517;50.390;8.616;2022-11-25T06:36:19;29.60;;;13.88;;
37677;SDS011;23517;50.390;8.616;2022-11-25T06:38:48;24.38;;;13.57;;
37677;SDS011;23517;50.390;8.616;2022-11-25T06:41:17;28.00;;;13.10;;
37677;SDS011;23517;50.390;8.616;2022-11-25T06:43:45;20.02;;;11.35;;
37677;SDS011;23517;50.390;8.616;2022-11-25T06:46:17;23.95;;;11.70;;
37677;SDS011;23517;50.390;8.616;2022-11-25T06:48:51;24.02;;;11.35;;
37677;SDS011;23517;50.390;8.616;2022-11-25T06:51:18;19.65;;;11.30;;
37677;SDS011;23517;50.390;8.616;2022-11-25T06:53:45;17.75;;;9.52;;
37677;SDS011;23517;50.390;8.616;2022-11-25T06:56:20;17.40;;;9.57;;
37677;SDS011;23517;50.390;8.616;2022-11-25T06:58:49;19.25;;;7.72;;
37677;SDS011;23517;50.390;8.616;2022-11-25T07:01:26;14.85;;;7.32;;
37677;SDS011;23517;50.390;8.616;2022-11-25T07:03:57;21.92;;;8.05;;
37677;SDS011;23517;50.390;8.616;2022-11-25T07:06:28;15.70;;;7.55;;
37677;SDS011;23517;50.390;8.616;2022-11-25T07:08:56;15.95;;;7.80;;
37677;SDS011;23517;50.390;8.616;2022-11-25T07:13:52;11.32;;;7.45;;
37677;SDS011;23517;50.390;8.616;2022-11-25T07:16:21;11.82;;;7.22;;
37677;SDS011;23517;50.390;8.616;2022-11-25T07:18:48;15.85;;;7.97;;
37677;SDS011;23517;50.390;8.616;2022-11-25T07:21:16;16.60;;;8.75;;
37677;SDS011;23517;50.390;8.616;2022-11-25T07:23:49;24.77;;;13.60;;
37677;SDS011;23517;50.390;8.616;2022-11-25T07:26:21;17.38;;;10.40;;
37677;SDS011;23517;50.390;8.616;2022-11-25T07:28:52;16.35;;;8.50;;
37677;SDS011;23517;50.390;8.616;2022-11-25T07:31:21;13.25;;;7.57;;
37677;SDS011;23517;50.390;8.616;2022-11-25T07:34:03;14.18;;;7.03;;
37677;SDS011;23517;50.390;8.616;2022-11-25T07:36:36;15.07;;;7.55;;
37677;SDS011;23517;50.390;8.616;2022-11-25T07:39:09;12.13;;;7.18;;
37677;SDS011;23517;50.390;8.616;2022-11-25T07:41:42;13.45;;;6.55;;
37677;SDS011;23517;50.390;8.616;2022-11-25T07:44:10;15.75;;;6.43;;
37677;SDS011;23517;50.390;8.616;2022-11-25T07:46:40;9.82;;;6.28;;
37677;SDS011;23517;50.390;8.616;2022-11-25T07:49:10;12.82;;;6.25;;
37677;SDS011;23517;50.390;8.616;2022-11-25T07:51:46;11.55;;;5.68;;
37677;SDS011;23517;50.390;8.616;2022-11-25T07:54:15;13.35;;;5.45;;
37677;SDS011;23517;50.390;8.616;2022-11-25T07:56:42;10.15;;;5.43;;
37677;SDS011;23517;50.390;8.616;2022-11-25T07:59:14;9.82;;;5.15;;
37677;SDS011;23517;50.390;8.616;2022-11-25T08:01:43;12.57;;;5.13;;
37677;SDS011;23517;50.390;8.616;2022-11-25T08:04:11;13.50;;;5.70;;
37677;SDS011;23517;50.390;8.616;2022-11-25T08:06:46;11.13;;;5.40;;
37677;SDS011;23517;50.390;8.616;2022-11-25T08:09:17;13.10;;;5.22;;
37677;SDS011;23517;50.390;8.616;2022-11-25T08:11:49;9.98;;;5.07;;
37677;SDS011;23517;50.390;8.616;2022-11-25T08:14:18;14.00;;;6.13;;
37677;SDS011;23517;50.390;8.616;2022-11-25T08:16:44;9.82;;;5.05;;
37677;SDS011;23517;50.390;8.616;2022-11-25T08:19:12;11.85;;;6.50;;
37677;SDS011;23517;50.390;8.616;2022-11-25T08:21:41;16.73;;;6.25;;
37677;SDS011;23517;50.390;8.616;2022-11-25T08:24:09;10.73;;;4.47;;
37677;SDS011;23517;50.390;8.616;2022-11-25T08:26:41;8.68;;;4.20;;
37677;SDS011;23517;50.390;8.616;2022-11-25T08:29:09;12.25;;;4.28;;
37677;SDS011;23517;50.390;8.616;2022-11-25T08:31:39;9.80;;;4.60;;
37677;SDS011;23517;50.390;8.616;2022-11-25T08:34:06;8.75;;;3.97;;
37677;SDS011;23517;50.390;8.616;2022-11-25T08:36:33;11.68;;;4.20;;
37677;SDS011;23517;50.390;8.616;2022-11-25T08:39:03;8.05;;;4.25;;
37677;SDS011;23517;50.390;8.616;2022-11-25T08:41:52;11.05;;;4.35;;
37677;SDS011;23517;50.390;8.616;2022-11-25T08:44:18;8.30;;;3.72;;
37677;SDS011;23517;50.390;8.616;2022-11-25T08:46:45;9.40;;;3.85;;
37677;SDS011;23517;50.390;8.616;2022-11-25T08:49:12;10.98;;;5.18;;
37677;SDS011;23517;50.390;8.616;2022-11-25T08:51:42;12.88;;;5.72;;
37677;SDS011;23517;50.390;8.616;2022-11-25T08:54:08;8.48;;;5.35;;
37677;SDS011;23517;50.390;8.616;2022-11-25T08:56:36;10.48;;;5.65;;
37677;SDS011;23517;50.390;8.616;2022-11-25T08:59:03;9.75;;;5.70;;
37677;SDS011;23517;50.390;8.616;2022-11-25T09:01:30;12.00;;;5.72;;
37677;SDS011;23517;50.390;8.616;2022-11-25T09:03:57;18.75;;;6.03;;
37677;SDS011;23517;50.390;8.616;2022-11-25T09:06:25;15.15;;;5.88;;
37677;SDS011;23517;50.390;8.616;2022-11-25T09:08:54;11.73;;;6.03;;
37677;SDS011;23517;50.390;8.616;2022-11-25T09:11:23;10.07;;;5.38;;
37677;SDS011;23517;50.390;8.616;2022-11-25T09:13:50;9.98;;;5.53;;
37677;SDS011;23517;50.390;8.616;2022-11-25T09:16:17;28.63;;;11.85;;
37677;SDS011;23517;50.390;8.616;2022-11-25T09:18:45;27.08;;;11.48;;
37677;SDS011;23517;50.390;8.616;2022-11-25T09:21:17;34.63;;;15.63;;
37677;SDS011;23517;50.390;8.616;2022-11-25T09:23:44;39.65;;;18.48;;
37677;SDS011;23517;50.390;8.616;2022-11-25T09:26:16;42.00;;;19.80;;
37677;SDS011;23517;50.390;8.616;2022-11-25T09:28:55;46.65;;;20.33;;
37677;SDS011;23517;50.390;8.616;2022-11-25T09:31:22;39.63;;;18.02;;
37677;SDS011;23517;50.390;8.616;2022-11-25T09:33:49;30.40;;;11.85;;
37677;SDS011;23517;50.390;8.616;2022-11-25T09:36:17;15.23;;;6.00;;
37677;SDS011;23517;50.390;8.616;2022-11-25T09:38:46;11.40;;;5.18;;
37677;SDS011;23517;50.390;8.616;2022-11-25T09:51:21;11.48;;;3.75;;
37677;SDS011;23517;50.390;8.616;2022-11-25T09:56:47;14.40;;;5.57;;
37677;SDS011;23517;50.390;8.616;2022-11-25T09:59:31;15.05;;;5.30;;
37677;SDS011;23517;50.390;8.616;2022-11-25T10:02:12;9.65;;;4.18;;
37677;SDS011;23517;50.390;8.616;2022-11-25T10:05:08;8.98;;;3.85;;
37677;SDS011;23517;50.390;8.616;2022-11-25T10:07:53;13.95;;;5.15;;
37677;SDS011;23517;50.390;8.616;2022-11-25T10:10:40;10.38;;;5.10;;
37677;SDS011;23517;50.390;8.616;2022-11-25T10:13:19;11.75;;;3.45;;
37677;SDS011;23517;50.390;8.616;2022-11-25T10:15:54;8.93;;;2.95;;
37677;SDS011;23517;50.390;8.616;2022-11-25T10:18:32;9.80;;;2.42;;
37677;SDS011;23517;50.390;8.616;2022-11-25T10:21:04;5.55;;;2.30;;
37677;SDS011;23517;50.390;8.616;2022-11-25T10:23:33;9.63;;;2.25;;
37677;SDS011;23517;50.390;8.616;2022-11-25T10:26:02;6.15;;;1.85;;
37677;SDS011;23517;50.390;8.616;2022-11-25T10:28:40;7.00;;;1.88;;
37677;SDS011;23517;50.390;8.616;2022-11-25T10:31:42;10.32;;;2.75;;
37677;SDS011;23517;50.390;8.616;2022-11-25T10:34:22;4.95;;;1.83;;
37677;SDS011;23517;50.390;8.616;2022-11-25T10:37:01;5.80;;;1.92;;
37677;SDS011;23517;50.390;8.616;2022-11-25T10:39:37;6.32;;;1.50;;
37677;SDS011;23517;50.390;8.616;2022-11-25T10:42:05;2.90;;;1.30;;
37677;SDS011;23517;50.390;8.616;2022-11-25T10:44:50;6.13;;;1.60;;
37677;SDS011;23517;50.390;8.616;2022-11-25T10:55:33;6.38;;;1.70;;
37677;SDS011;23517;50.390;8.616;2022-11-25T11:01:04;8.00;;;2.60;;
37677;SDS011;23517;50.390;8.616;2022-11-25T11:04:11;4.70;;;1.70;;
37677;SDS011;23517;50.390;8.616;2022-11-25T11:06:47;9.23;;;2.13;;
37677;SDS011;23517;50.390;8.616;2022-11-25T11:12:34;8.02;;;2.53;;
37677;SDS011;23517;50.390;8.616;2022-11-25T11:15:14;8.15;;;2.50;;
37677;SDS011;23517;50.390;8.616;2022-11-25T11:17:47;8.02;;;3.15;;
37677;SDS011;23517;50.390;8.616;2022-11-25T11:22:53;6.93;;;3.60;;
37677;SDS011;23517;50.390;8.616;2022-11-25T11:25:35;9.02;;;2.40;;
37677;SDS011;23517;50.390;8.616;2022-11-25T11:28:23;9.07;;;3.10;;
37677;SDS011;23517;50.390;8.616;2022-11-25T11:30:59;10.52;;;5.50;;
37677;SDS011;23517;50.390;8.616;2022-11-25T11:36:16;6.30;;;2.17;;
37677;SDS011;23517;50.390;8.616;2022-11-25T11:42:29;9.60;;;2.33;;
37677;SDS011;23517;50.390;8.616;2022-11-25T11:47:55;5.80;;;1.80;;
37677;SDS011;23517;50.390;8.616;2022-11-25T11:53:45;6.18;;;1.95;;
37677;SDS011;23517;50.390;8.616;2022-11-25T11:56:33;7.43;;;2.03;;
37677;SDS011;23517;50.390;8.616;2022-11-25T12:02:34;5.38;;;1.92;;
37677;SDS011;23517;50.390;8.616;2022-11-25T12:05:21;6.63;;;1.85;;
37677;SDS011;23517;50.390;8.616;2022-11-25T12:10:43;9.50;;;2.78;;
37677;SDS011;23517;50.390;8.616;2022-11-25T12:13:49;5.03;;;1.90;;
37677;SDS011;23517;50.390;8.616;2022-11-25T12:16:52;6.00;;;2.22;;
37677;SDS011;23517;50.390;8.616;2022-11-25T12:19:38;11.60;;;5.22;;
37677;SDS011;23517;50.390;8.616;2022-11-25T12:22:31;6.05;;;2.63;;
37677;SDS011;23517;50.390;8.616;2022-11-25T12:25:22;10.48;;;4.28;;
37677;SDS011;23517;50.390;8.616;2022-11-25T12:28:40;8.60;;;2.20;;
37677;SDS011;23517;50.390;8.616;2022-11-25T12:33:45;5.72;;;1.80;;
37677;SDS011;23517;50.390;8.616;2022-11-25T12:36:52;5.03;;;1.90;;
37677;SDS011;23517;50.390;8.616;2022-11-25T12:39:39;10.77;;;3.10;;
37677;SDS011;23517;50.390;8.616;2022-11-25T12:42:14;11.25;;;4.43;;
37677;SDS011;23517;50.390;8.616;2022-11-25T12:44:56;9.23;;;2.85;;
37677;SDS011;23517;50.390;8.616;2022-11-25T12:47:32;7.30;;;2.10;;
37677;SDS011;23517;50.390;8.616;2022-11-25T12:49:59;8.55;;;2.00;;
37677;SDS011;23517;50.390;8.616;2022-11-25T13:03:53;9.50;;;2.45;;
37677;SDS011;23517;50.390;8.616;2022-11-25T13:16:07;5.65;;;2.00;;
37677;SDS011;23517;50.390;8.616;2022-11-25T13:18:37;5.55;;;1.70;;
37677;SDS011;23517;50.390;8.616;2022-11-25T13:21:12;8.63;;;2.42;;
37677;SDS011;23517;50.390;8.616;2022-11-25T13:23:54;4.88;;;1.67;;
37677;SDS011;23517;50.390;8.616;2022-11-25T13:31:53;5.68;;;1.92;;
37677;SDS011;23517;50.390;8.616;2022-11-25T13:34:28;5.13;;;1.73;;
37677;SDS011;23517;50.390;8.616;2022-11-25T13:36:57;6.85;;;1.50;;
37677;SDS011;23517;50.390;8.616;2022-11-25T13:39:30;5.70;;;1.48;;
37677;SDS011;23517;50.390;8.616;2022-11-25T13:44:55;7.05;;;1.70;;
37677;SDS011;23517;50.390;8.616;2022-11-25T13:55:32;8.63;;;1.80;;
37677;SDS011;23517;50.390;8.616;2022-11-25T14:18:27;7.40;;;2.08;;
37677;SDS011;23517;50.390;8.616;2022-11-25T14:26:56;2.72;;;1.70;;
37677;SDS011;23517;50.390;8.616;2022-11-25T14:29:26;6.38;;;1.88;;
37677;SDS011;23517;50.390;8.616;2022-11-25T14:32:12;6.13;;;2.22;;
37677;SDS011;23517;50.390;8.616;2022-11-25T14:35:10;6.50;;;2.38;;
37677;SDS011;23517;50.390;8.616;2022-11-25T14:43:25;11.32;;;4.30;;
37677;SDS011;23517;50.390;8.616;2022-11-25T14:48:51;10.88;;;5.47;;
37677;SDS011;23517;50.390;8.616;2022-11-25T14:51:21;11.52;;;5.70;;
37677;SDS011;23517;50.390;8.616;2022-11-25T14:53:51;14.38;;;5.65;;
37677;SDS011;23517;50.390;8.616;2022-11-25T14:56:25;12.55;;;6.55;;
37677;SDS011;23517;50.390;8.616;2022-11-25T14:58:54;16.92;;;10.00;;
37677;SDS011;23517;50.390;8.616;2022-11-25T15:01:24;13.80;;;8.18;;
37677;SDS011;23517;50.390;8.616;2022-11-25T15:04:03;12.90;;;7.18;;
37677;SDS011;23517;50.390;8.616;2022-11-25T15:06:50;13.40;;;5.68;;
37677;SDS011;23517;50.390;8.616;2022-11-25T15:12:01;12.10;;;4.78;;
37677;SDS011;23517;50.390;8.616;2022-11-25T15:14:33;8.68;;;4.15;;
37677;SDS011;23517;50.390;8.616;2022-11-25T15:17:19;11.85;;;5.03;;
37677;SDS011;23517;50.390;8.616;2022-11-25T15:19:56;8.40;;;4.15;;
37677;SDS011;23517;50.390;8.616;2022-11-25T15:22:26;5.10;;;3.42;;
37677;SDS011;23517;50.390;8.616;2022-11-25T15:24:54;8.93;;;3.75;;
37677;SDS011;23517;50.390;8.616;2022-11-25T15:27:32;10.45;;;3.53;;
37677;SDS011;23517;50.390;8.616;2022-11-25T15:29:59;7.22;;;3.35;;
37677;SDS011;23517;50.390;8.616;2022-11-25T15:32:32;8.68;;;3.30;;
37677;SDS011;23517;50.390;8.616;2022-11-25T15:35:03;9.57;;;3.40;;
37677;SDS011;23517;50.390;8.616;2022-11-25T15:37:32;9.50;;;3.28;;
37677;SDS011;23517;50.390;8.616;2022-11-25T15:43:21;5.80;;;2.67;;
37677;SDS011;23517;50.390;8.616;2022-11-25T15:45:52;8.45;;;3.40;;
37677;SDS011;23517;50.390;8.616;2022-11-25T15:48:25;11.00;;;2.85;;
37677;SDS011;23517;50.390;8.616;2022-11-25T15:56:47;6.03;;;2.03;;
37677;SDS011;23517;50.390;8.616;2022-11-25T16:02:32;3.45;;;1.88;;
37677;SDS011;23517;50.390;8.616;2022-11-25T16:10:17;8.18;;;2.35;;
37677;SDS011;23517;50.390;8.616;2022-11-25T16:21:16;10.88;;;4.63;;
37677;SDS011;23517;50.390;8.616;2022-11-25T16:23:50;30.50;;;16.33;;
37677;SDS011;23517;50.390;8.616;2022-11-25T16:26:56;17.48;;;8.68;;
37677;SDS011;23517;50.390;8.616;2022-11-25T16:32:13;6.72;;;2.75;;
37677;SDS011;23517;50.390;8.616;2022-11-25T16:34:45;8.27;;;3.35;;
37677;SDS011;23517;50.390;8.616;2022-11-25T16:37:12;5.28;;;2.50;;
37677;SDS011;23517;50.390;8.616;2022-11-25T16:39:39;6.03;;;3.00;;
37677;SDS011;23517;50.390;8.616;2022-11-25T16:42:06;6.18;;;3.08;;
37677;SDS011;23517;50.390;8.616;2022-11-25T16:44:41;9.48;;;2.67;;
37677;SDS011;23517;50.390;8.616;2022-11-25T16:47:14;5.00;;;2.78;;
37677;SDS011;23517;50.390;8.616;2022-11-25T16:49:41;4.85;;;2.72;;
37677;SDS011;23517;50.390;8.616;2022-11-25T16:52:08;10.45;;;2.65;;
37677;SDS011;23517;50.390;8.616;2022-11-25T16:54:35;7.63;;;3.47;;
37677;SDS011;23517;50.390;8.616;2022-11-25T16:57:04;5.53;;;3.60;;
37677;SDS011;23517;50.390;8.616;2022-11-25T16:59:36;4.50;;;2.38;;
37677;SDS011;23517;50.390;8.616;2022-11-25T17:02:14;7.60;;;2.90;;
37677;SDS011;23517;50.390;8.616;2022-11-25T17:04:44;5.90;;;3.25;;
37677;SDS011;23517;50.390;8.616;2022-11-25T17:07:13;8.10;;;4.55;;
37677;SDS011;23517;50.390;8.616;2022-11-25T17:09:58;8.45;;;3.92;;
37677;SDS011;23517;50.390;8.616;2022-11-25T17:12:26;8.63;;;3.40;;
37677;SDS011;23517;50.390;8.616;2022-11-25T17:14:55;11.23;;;5.20;;
37677;SDS011;23517;50.390;8.616;2022-11-25T17:17:25;10.43;;;4.57;;
37677;SDS011;23517;50.390;8.616;2022-11-25T17:19:52;12.30;;;6.70;;
37677;SDS011;23517;50.390;8.616;2022-11-25T17:22:20;11.68;;;5.32;;
37677;SDS011;23517;50.390;8.616;2022-11-25T17:24:51;13.02;;;3.65;;
37677;SDS011;23517;50.390;8.616;2022-11-25T17:27:20;14.50;;;6.18;;
37677;SDS011;23517;50.390;8.616;2022-11-25T17:29:51;14.23;;;7.80;;
37677;SDS011;23517;50.390;8.616;2022-11-25T17:32:19;18.35;;;9.23;;
37677;SDS011;23517;50.390;8.616;2022-11-25T17:34:46;19.35;;;9.25;;
37677;SDS011;23517;50.390;8.616;2022-11-25T17:37:14;13.70;;;5.45;;
37677;SDS011;23517;50.390;8.616;2022-11-25T17:39:44;16.50;;;7.43;;
37677;SDS011;23517;50.390;8.616;2022-11-25T17:42:14;13.80;;;5.22;;
37677;SDS011;23517;50.390;8.616;2022-11-25T17:44:43;12.18;;;4.68;;
37677;SDS011;23517;50.390;8.616;2022-11-25T17:47:17;8.30;;;3.92;;
37677;SDS011;23517;50.390;8.616;2022-11-25T17:49:46;13.10;;;4.50;;
37677;SDS011;23517;50.390;8.616;2022-11-25T17:52:14;12.82;;;3.30;;
37677;SDS011;23517;50.390;8.616;2022-11-25T17:54:41;10.85;;;3.05;;
37677;SDS011;23517;50.390;8.616;2022-11-25T17:57:10;19.20;;;9.35;;
37677;SDS011;23517;50.390;8.616;2022-11-25T17:59:42;14.35;;;8.50;;